Time;durP1;ratioP1;P1;durP2;ratioP2;P2;SDS_P1;SDS_P2;PMS_P1;PMS_P2;Temp;Humidity;BMP_temperature;BMP_pressure;BME280_temperature;BME280_humidity;BME280_pressure;Samples;Min_cycle;Max_cycle;Signal;HPM_P1;HPM_P2
2022/08/05 00:01:02;;;;;;;7.18;3.20;;;18.30;99.90;;;;;;5044368;28;20208;-84
2022/08/05 00:03:27;;;;;;;6.53;3.70;;;18.20;1.00;;;;;;5064656;28;20481;-84
2022/08/05 00:05:54;;;;;;;5.78;3.50;;;18.10;10.20;;;;;;5028046;28;20124;-84
2022/08/05 00:08:22;;;;;;;6.90;3.38;;;18.00;99.90;;;;;;5014873;28;20683;-83
2022/08/05 00:10:47;;;;;;;6.35;3.58;;;18.00;1.00;;;;;;5009853;28;20191;-84
2022/08/05 00:13:13;;;;;;;8.18;3.55;;;18.10;22.30;;;;;;5014303;28;20546;-83
2022/08/05 00:15:39;;;;;;;7.28;3.60;;;18.00;48.40;;;;;;5026958;28;20405;-83
2022/08/05 00:18:05;;;;;;;7.82;3.42;;;18.10;1.00;;;;;;5059591;28;20045;-84
2022/08/05 00:20:33;;;;;;;7.03;3.40;;;18.00;70.40;;;;;;5034242;28;20044;-83
2022/08/05 00:22:59;;;;;;;4.80;3.00;;;18.00;99.90;;;;;;5016159;28;20338;-84
2022/08/05 00:25:24;;;;;;;6.70;3.53;;;18.00;86.90;;;;;;5055515;28;20595;-83
2022/08/05 00:27:50;;;;;;;7.07;3.47;;;18.00;99.90;;;;;;5057506;28;20507;-84
2022/08/05 00:30:16;;;;;;;8.32;3.47;;;17.90;99.90;;;;;;5039151;28;20480;-83
2022/08/05 00:32:42;;;;;;;7.70;3.88;;;17.90;99.90;;;;;;5009958;28;20124;-84
2022/08/05 00:35:08;;;;;;;6.88;3.50;;;17.80;99.90;;;;;;5027777;28;20044;-84
2022/08/05 00:37:37;;;;;;;8.00;3.10;;;17.90;90.80;;;;;;5014559;28;20389;-83
2022/08/05 00:40:06;;;;;;;7.03;3.70;;;17.80;99.90;;;;;;5024031;28;20501;-83
2022/08/05 00:42:34;;;;;;;6.70;3.53;;;17.80;73.70;;;;;;5010475;28;20045;-83
2022/08/05 00:45:01;;;;;;;7.00;3.38;;;17.80;40.80;;;;;;5007877;28;20051;-84
2022/08/05 00:47:29;;;;;;;5.75;3.13;;;17.80;42.30;;;;;;5012889;28;20120;-84
2022/08/05 00:49:55;;;;;;;7.65;3.60;;;17.80;1.00;;;;;;5010835;28;20041;-83
2022/08/05 00:52:21;;;;;;;5.53;3.30;;;17.80;1.00;;;;;;5005314;28;20060;-84
2022/08/05 00:54:47;;;;;;;7.07;3.10;;;17.80;1.00;;;;;;5048713;28;20106;-84
2022/08/05 00:57:13;;;;;;;4.57;3.08;;;17.80;1.00;;;;;;5056351;28;20072;-84
2022/08/05 00:59:39;;;;;;;7.47;3.38;;;17.80;1.00;;;;;;5016075;28;20129;-83
2022/08/05 01:02:05;;;;;;;7.25;3.30;;;17.80;1.00;;;;;;5011758;28;20122;-84
2022/08/05 01:04:33;;;;;;;5.22;3.35;;;17.90;1.00;;;;;;5028350;28;20044;-83
2022/08/05 01:06:59;;;;;;;5.60;3.30;;;17.90;1.00;;;;;;5025032;28;20048;-84
2022/08/05 01:09:24;;;;;;;6.47;3.17;;;17.90;1.00;;;;;;5013566;28;20045;-83
2022/08/05 01:11:54;;;;;;;6.10;3.45;;;18.00;99.90;;;;;;5066077;28;20127;-84
2022/08/05 01:14:32;;;;;;;7.78;3.72;;;18.00;1.00;;;;;;5043009;28;20049;-84
2022/08/05 01:17:28;;;;;;;9.30;3.60;;;18.00;99.90;;;;;;5029572;28;20041;-84
2022/08/05 01:20:05;;;;;;;5.20;3.05;;;18.00;99.90;;;;;;5040975;28;20041;-84
2022/08/05 01:22:39;;;;;;;5.80;3.17;;;18.00;99.90;;;;;;5062356;28;20037;-84
2022/08/05 01:25:23;;;;;;;6.07;2.92;;;18.00;99.90;;;;;;5007855;28;20040;-84
2022/08/05 01:28:26;;;;;;;5.75;3.00;;;18.00;99.90;;;;;;5040589;28;20034;-84
2022/08/05 01:31:15;;;;;;;6.32;2.78;;;18.00;99.90;;;;;;5028198;28;20144;-84
2022/08/05 01:33:58;;;;;;;4.88;2.92;;;18.00;99.90;;;;;;5012779;28;20041;-84
2022/08/05 01:36:28;;;;;;;6.65;2.97;;;17.90;99.90;;;;;;5007495;28;20132;-84
2022/08/05 01:38:57;;;;;;;6.75;3.40;;;17.90;1.00;;;;;;5035473;28;20030;-84
2022/08/05 01:41:26;;;;;;;8.48;3.47;;;17.90;1.00;;;;;;5012327;28;20033;-83
2022/08/05 01:43:53;;;;;;;6.22;3.00;;;17.90;1.00;;;;;;5039393;28;20030;-84
2022/08/05 01:46:21;;;;;;;8.57;3.25;;;17.90;1.00;;;;;;5057795;28;20477;-84
2022/08/05 01:48:53;;;;;;;6.60;3.13;;;17.90;1.00;;;;;;5057677;28;20072;-84
2022/08/05 01:51:19;;;;;;;5.63;3.33;;;17.80;1.00;;;;;;5012977;28;20050;-84
2022/08/05 01:53:48;;;;;;;7.60;3.20;;;17.80;1.00;;;;;;5043948;28;20041;-84
2022/08/05 01:56:19;;;;;;;6.68;3.70;;;17.80;1.00;;;;;;5030282;28;20035;-84
2022/08/05 01:58:49;;;;;;;6.95;3.40;;;17.80;1.00;;;;;;5059648;28;20100;-84
2022/08/05 02:01:17;;;;;;;5.57;3.60;;;17.80;1.00;;;;;;5034819;28;20083;-84
2022/08/05 02:03:47;;;;;;;7.93;3.72;;;17.70;99.90;;;;;;5036522;28;20041;-84
2022/08/05 02:06:14;;;;;;;7.75;3.83;;;17.70;99.90;;;;;;5027219;28;20334;-84
2022/08/05 02:08:41;;;;;;;8.27;3.85;;;17.70;99.90;;;;;;5014117;28;20040;-85
2022/08/05 02:11:10;;;;;;;8.13;3.72;;;17.70;99.90;;;;;;5034294;28;20150;-84
2022/08/05 02:13:51;;;;;;;6.78;3.95;;;17.70;99.90;;;;;;5030416;28;20600;-84
2022/08/05 02:16:33;;;;;;;5.82;3.65;;;17.60;99.90;;;;;;5035064;28;20476;-84
2022/08/05 02:19:10;;;;;;;6.90;4.10;;;17.60;99.90;;;;;;5027069;28;20255;-84
2022/08/05 02:21:42;;;;;;;8.77;4.60;;;17.60;99.90;;;;;;5025424;28;20045;-84
2022/08/05 02:24:12;;;;;;;9.25;4.50;;;17.60;99.90;;;;;;5012396;28;20071;-83
2022/08/05 02:26:45;;;;;;;8.85;4.50;;;17.50;99.90;;;;;;5046003;28;20065;-84
2022/08/05 02:29:15;;;;;;;8.40;4.50;;;17.50;99.90;;;;;;5034236;28;20046;-84
2022/08/05 02:31:43;;;;;;;8.32;4.38;;;17.50;99.90;;;;;;5023093;28;20170;-84
2022/08/05 02:34:11;;;;;;;8.93;4.18;;;17.50;99.90;;;;;;5044322;28;20527;-83
2022/08/05 02:36:42;;;;;;;8.55;4.30;;;17.50;99.90;;;;;;5040168;28;20103;-84
2022/08/05 02:39:09;;;;;;;7.60;4.07;;;17.50;99.90;;;;;;5025473;28;20144;-84
2022/08/05 02:41:37;;;;;;;6.43;4.10;;;17.40;99.90;;;;;;5005575;28;20495;-84
2022/08/05 02:44:07;;;;;;;6.95;4.10;;;17.50;99.90;;;;;;5048904;28;20047;-84
2022/08/05 02:46:39;;;;;;;7.03;4.40;;;17.50;99.90;;;;;;5023844;28;20396;-84
2022/08/05 02:49:06;;;;;;;7.65;4.68;;;17.50;99.90;;;;;;5052642;28;20049;-85
2022/08/05 02:51:34;;;;;;;8.50;4.60;;;17.40;99.90;;;;;;5034375;28;20393;-85
2022/08/05 02:54:01;;;;;;;6.85;4.30;;;17.40;99.90;;;;;;5035380;28;20037;-85
2022/08/05 02:56:27;;;;;;;7.50;4.47;;;17.50;99.90;;;;;;5042275;28;20103;-85
2022/08/05 02:58:58;;;;;;;8.93;4.88;;;17.40;99.90;;;;;;5016183;28;20736;-84
2022/08/05 03:01:25;;;;;;;11.57;4.88;;;17.30;99.90;;;;;;5032265;28;20029;-84
2022/08/05 03:03:56;;;;;;;7.60;5.07;;;17.30;99.90;;;;;;5060007;28;20132;-84
2022/08/05 03:06:22;;;;;;;9.52;5.10;;;17.40;99.90;;;;;;5014693;28;20473;-84
2022/08/05 03:08:50;;;;;;;8.35;5.60;;;17.30;99.90;;;;;;5032103;28;20026;-84
2022/08/05 03:11:22;;;;;;;7.57;5.35;;;17.30;99.90;;;;;;5037855;28;20051;-84
2022/08/05 03:13:48;;;;;;;8.23;5.38;;;17.40;99.90;;;;;;5012734;28;20045;-84
2022/08/05 03:16:17;;;;;;;8.63;5.55;;;17.30;99.90;;;;;;5015292;28;20047;-84
2022/08/05 03:18:44;;;;;;;9.38;5.07;;;17.40;99.90;;;;;;5062184;28;20041;-84
2022/08/05 03:21:10;;;;;;;9.57;5.45;;;17.30;99.90;;;;;;5055791;28;20540;-84
2022/08/05 03:23:38;;;;;;;7.28;5.50;;;17.30;99.90;;;;;;5015140;28;20524;-83
2022/08/05 03:26:05;;;;;;;9.57;5.88;;;17.30;99.90;;;;;;5058472;28;20388;-85
2022/08/05 03:28:34;;;;;;;9.75;6.00;;;17.30;99.90;;;;;;5063031;28;20049;-85
2022/08/05 03:31:01;;;;;;;8.13;5.47;;;17.30;99.90;;;;;;5038112;28;20037;-84
2022/08/05 03:33:28;;;;;;;7.50;5.57;;;17.20;99.90;;;;;;5014682;28;20103;-84
2022/08/05 03:35:58;;;;;;;10.90;6.18;;;17.20;99.90;;;;;;5040957;28;20120;-84
2022/08/05 03:38:25;;;;;;;11.45;6.20;;;17.20;99.90;;;;;;5046208;28;20063;-84
2022/08/05 03:40:52;;;;;;;12.20;6.10;;;17.20;99.90;;;;;;5012676;28;20077;-83
2022/08/05 03:43:19;;;;;;;7.70;5.60;;;17.20;99.90;;;;;;5062016;28;20558;-84
2022/08/05 03:45:45;;;;;;;9.15;6.10;;;17.20;99.90;;;;;;5045597;28;20606;-84
2022/08/05 03:48:11;;;;;;;9.43;5.80;;;17.20;99.90;;;;;;5050779;28;20138;-84
2022/08/05 03:50:58;;;;;;;9.18;5.78;;;17.20;99.90;;;;;;5040259;28;20084;-83
2022/08/05 03:53:35;;;;;;;7.68;5.60;;;17.20;99.90;;;;;;5030384;28;20044;-84
2022/08/05 03:56:25;;;;;;;12.63;5.57;;;17.20;99.90;;;;;;5054062;28;20045;-84
2022/08/05 03:58:54;;;;;;;6.95;5.18;;;17.30;99.90;;;;;;5048682;28;20048;-84
2022/08/05 04:01:21;;;;;;;11.10;5.60;;;17.20;99.90;;;;;;5035391;28;20554;-84
2022/08/05 04:03:49;;;;;;;7.47;5.38;;;17.20;99.90;;;;;;5061671;28;20056;-84
2022/08/05 04:06:17;;;;;;;9.13;5.40;;;17.10;99.90;;;;;;5012758;28;20021;-84
2022/08/05 04:08:44;;;;;;;8.60;5.65;;;17.10;99.90;;;;;;5056744;28;20033;-84
2022/08/05 04:11:10;;;;;;;8.32;5.10;;;17.10;99.90;;;;;;5027947;28;20049;-84
2022/08/05 04:13:39;;;;;;;16.45;6.03;;;17.10;99.90;;;;;;5016934;28;20110;-84
2022/08/05 04:16:08;;;;;;;8.18;5.45;;;17.10;99.90;;;;;;5050558;28;20473;-84
2022/08/05 04:18:34;;;;;;;9.60;4.90;;;17.10;99.90;;;;;;5013205;28;20087;-84
2022/08/05 04:21:04;;;;;;;10.98;5.68;;;17.10;99.90;;;;;;5011892;28;20041;-84
2022/08/05 04:23:31;;;;;;;6.55;5.10;;;17.10;99.90;;;;;;5057388;28;20044;-84
2022/08/05 04:25:57;;;;;;;7.72;4.90;;;17.10;99.90;;;;;;5013682;28;20029;-83
2022/08/05 04:28:23;;;;;;;10.65;4.85;;;17.20;99.90;;;;;;5034965;28;20045;-84
2022/08/05 04:30:49;;;;;;;7.82;5.38;;;17.10;99.90;;;;;;5052245;28;20436;-84
2022/08/05 04:33:16;;;;;;;7.45;4.90;;;17.10;99.90;;;;;;5012337;28;20099;-84
2022/08/05 04:35:44;;;;;;;7.50;5.20;;;17.20;99.90;;;;;;5012079;28;20480;-83
2022/08/05 04:38:13;;;;;;;7.63;5.30;;;17.20;99.90;;;;;;5042506;28;20045;-84
2022/08/05 04:40:48;;;;;;;7.30;5.57;;;17.20;99.90;;;;;;5008075;28;20052;-84
2022/08/05 04:43:14;;;;;;;8.95;5.80;;;17.20;99.90;;;;;;5012857;28;20037;-85
2022/08/05 04:45:40;;;;;;;8.50;5.93;;;17.20;99.90;;;;;;5038148;28;20396;-84
2022/08/05 04:48:12;;;;;;;9.70;5.60;;;17.20;99.90;;;;;;5007259;28;20053;-84
2022/08/05 04:50:43;;;;;;;8.23;5.70;;;17.20;99.90;;;;;;5010986;28;20495;-84
2022/08/05 04:53:10;;;;;;;6.70;5.50;;;17.30;99.90;;;;;;5052042;28;20049;-85
2022/08/05 04:55:37;;;;;;;9.30;6.03;;;17.20;99.90;;;;;;5024833;28;20094;-84
2022/08/05 04:58:10;;;;;;;8.50;5.53;;;17.30;99.90;;;;;;5019511;28;20309;-83
2022/08/05 05:00:37;;;;;;;9.20;5.78;;;17.20;99.90;;;;;;5051856;28;20564;-84
2022/08/05 05:03:05;;;;;;;9.80;5.20;;;17.20;99.90;;;;;;5014480;28;20037;-84
2022/08/05 05:05:33;;;;;;;8.27;5.20;;;17.30;99.90;;;;;;5011165;28;20079;-84
2022/08/05 05:08:01;;;;;;;8.82;5.28;;;17.30;99.90;;;;;;5010325;28;20072;-84
2022/08/05 05:10:28;;;;;;;9.30;5.80;;;17.40;99.90;;;;;;5006818;28;20875;-84
2022/08/05 05:12:54;;;;;;;8.95;6.22;;;17.40;99.90;;;;;;5040771;28;20052;-84
2022/08/05 05:15:19;;;;;;;7.50;5.80;;;17.40;99.90;;;;;;5012851;28;20048;-84
2022/08/05 05:17:45;;;;;;;6.65;4.85;;;17.40;99.90;;;;;;5013612;28;20045;-84
2022/08/05 05:20:12;;;;;;;10.52;5.97;;;17.40;99.90;;;;;;5014644;28;20426;-84
2022/08/05 05:22:41;;;;;;;6.38;5.45;;;17.40;99.90;;;;;;5043107;28;20071;-84
2022/08/05 05:25:18;;;;;;;10.27;5.95;;;17.30;99.90;;;;;;5038864;28;20446;-84
2022/08/05 05:27:53;;;;;;;8.70;5.90;;;17.30;99.90;;;;;;5040502;28;20037;-85
2022/08/05 05:30:19;;;;;;;9.07;6.30;;;17.30;99.90;;;;;;5037647;28;20037;-84
2022/08/05 05:32:45;;;;;;;8.65;6.10;;;17.30;99.90;;;;;;5030732;28;20342;-84
2022/08/05 05:35:15;;;;;;;8.63;6.07;;;17.20;99.90;;;;;;5016486;28;20040;-84
2022/08/05 05:37:54;;;;;;;6.55;5.57;;;17.20;99.90;;;;;;5033594;28;20033;-85
2022/08/05 05:40:23;;;;;;;7.22;6.18;;;17.20;99.90;;;;;;5024726;28;20148;-84
2022/08/05 05:42:49;;;;;;;7.43;5.85;;;17.20;99.90;;;;;;5042150;28;20083;-84
2022/08/05 05:45:16;;;;;;;7.50;5.97;;;17.10;99.90;;;;;;5066215;28;20579;-84
2022/08/05 05:47:42;;;;;;;7.45;6.03;;;17.10;99.90;;;;;;5047145;28;20437;-84
2022/08/05 05:50:09;;;;;;;9.15;6.38;;;17.20;99.90;;;;;;5038294;28;20555;-84
2022/08/05 05:52:35;;;;;;;7.30;6.05;;;17.10;99.90;;;;;;5010843;28;20292;-84
2022/08/05 05:55:03;;;;;;;8.75;6.53;;;17.10;99.90;;;;;;5007549;28;20029;-84
2022/08/05 05:57:28;;;;;;;8.35;6.45;;;17.00;99.90;;;;;;5046762;28;20053;-85
2022/08/05 05:59:54;;;;;;;10.57;6.20;;;17.10;99.90;;;;;;5051339;28;20053;-84
2022/08/05 06:02:20;;;;;;;9.75;6.88;;;17.10;99.90;;;;;;5011035;28;20385;-84
2022/08/05 06:04:46;;;;;;;8.63;6.15;;;17.20;99.90;;;;;;5012162;28;20040;-84
2022/08/05 06:07:11;;;;;;;10.07;6.03;;;17.20;99.90;;;;;;5030898;28;20072;-84
2022/08/05 06:09:37;;;;;;;8.73;6.43;;;17.20;99.90;;;;;;5010208;28;20114;-84
2022/08/05 06:12:03;;;;;;;7.97;6.53;;;17.20;99.90;;;;;;5045031;28;20072;-85
2022/08/05 06:14:30;;;;;;;7.35;6.13;;;17.30;99.90;;;;;;5060065;28;20041;-84
2022/08/05 06:16:55;;;;;;;9.23;6.47;;;17.50;99.90;;;;;;5029570;28;20552;-84
2022/08/05 06:19:21;;;;;;;7.10;5.80;;;17.50;99.90;;;;;;5030471;28;20120;-84
2022/08/05 06:21:47;;;;;;;7.82;6.32;;;17.70;99.90;;;;;;5011011;28;20037;-84
2022/08/05 06:24:13;;;;;;;7.50;5.68;;;17.80;99.90;;;;;;5023210;28;20189;-84
2022/08/05 06:26:42;;;;;;;7.60;5.10;;;17.70;91.40;;;;;;5036051;28;20088;-84
2022/08/05 06:29:08;;;;;;;7.70;5.15;;;17.70;1.00;;;;;;5025362;28;20481;-84
2022/08/05 06:31:33;;;;;;;6.20;5.38;;;17.80;1.00;;;;;;5007686;28;20079;-84
2022/08/05 06:33:59;;;;;;;5.30;4.80;;;17.90;1.00;;;;;;5038850;28;20103;-85
2022/08/05 06:36:25;;;;;;;6.15;4.60;;;17.90;1.00;;;;;;5051511;28;20025;-85
2022/08/05 06:38:53;;;;;;;8.15;4.05;;;18.00;1.00;;;;;;5038380;28;20563;-84
2022/08/05 06:41:23;;;;;;;5.50;4.47;;;18.00;1.00;;;;;;5020093;28;20099;-84
2022/08/05 06:43:48;;;;;;;5.60;4.38;;;18.10;99.90;;;;;;5043224;28;20041;-84
2022/08/05 06:46:14;;;;;;;8.02;3.75;;;18.20;99.90;;;;;;5021795;28;20048;-85
2022/08/05 06:48:43;;;;;;;4.53;3.58;;;18.50;99.90;;;;;;5007699;28;20420;-84
2022/08/05 06:51:09;;;;;;;5.03;3.92;;;18.70;99.90;;;;;;5028917;28;20054;-88
2022/08/05 06:53:37;;;;;;;6.03;3.75;;;18.80;99.90;;;;;;5030038;28;20101;-89
2022/08/05 06:56:04;;;;;;;4.50;3.30;;;18.90;99.90;;;;;;5024522;28;20102;-88
2022/08/05 06:58:30;;;;;;;5.22;3.20;;;19.00;1.00;;;;;;5009701;28;20063;-88
2022/08/05 07:01:00;;;;;;;4.43;2.90;;;19.10;33.00;;;;;;5044391;28;20080;-88
2022/08/05 07:03:29;;;;;;;3.15;1.60;;;19.10;68.00;;;;;;5017383;28;20037;-89
2022/08/05 07:05:55;;;;;;;3.00;2.40;;;18.80;99.90;;;;;;5010015;28;20038;-84
2022/08/05 07:08:27;;;;;;;4.65;2.10;;;18.90;1.00;;;;;;5019700;28;20380;-84
2022/08/05 07:10:53;;;;;;;6.53;2.25;;;19.10;2.80;;;;;;5007574;28;20032;-84
2022/08/05 07:18:51;;;;;;;2.63;1.90;;;19.40;1.00;;;;;;5051895;28;20056;-84
2022/08/05 07:21:17;;;;;;;3.15;1.90;;;19.40;99.90;;;;;;5037856;28;20037;-84
2022/08/05 07:23:46;;;;;;;3.92;2.20;;;19.70;99.90;;;;;;5056835;28;20168;-84
2022/08/05 07:26:11;;;;;;;5.13;2.47;;;19.70;99.90;;;;;;5042338;28;20042;-84
2022/08/05 07:28:37;;;;;;;3.42;1.67;;;20.00;99.90;;;;;;5058724;28;20322;-85
2022/08/05 07:31:03;;;;;;;3.35;1.70;;;19.80;99.90;;;;;;5014633;28;20099;-84
2022/08/05 07:33:28;;;;;;;2.50;1.50;;;19.50;99.90;;;;;;5049820;28;20135;-85
2022/08/05 07:35:54;;;;;;;2.45;1.60;;;19.60;99.90;;;;;;5041675;28;20365;-84
2022/08/05 07:38:20;;;;;;;1.80;1.38;;;19.60;99.90;;;;;;5008394;28;20127;-85
2022/08/05 07:40:46;;;;;;;2.63;1.45;;;19.50;99.90;;;;;;5028971;28;20104;-84
2022/08/05 07:43:14;;;;;;;3.65;1.50;;;19.60;99.90;;;;;;5040616;28;20508;-84
2022/08/05 07:45:42;;;;;;;2.95;1.55;;;19.70;99.90;;;;;;5030688;28;20055;-86
2022/08/05 07:48:08;;;;;;;3.60;1.40;;;19.90;99.90;;;;;;5044713;28;20168;-85
2022/08/05 07:50:33;;;;;;;2.88;1.50;;;19.70;1.00;;;;;;5043792;28;20182;-84
2022/08/05 07:52:59;;;;;;;2.22;1.40;;;20.00;77.50;;;;;;5012782;28;20053;-84
2022/08/05 07:55:25;;;;;;;3.25;1.35;;;20.10;99.90;;;;;;5063948;28;20087;-84
2022/08/05 07:57:54;;;;;;;2.85;1.50;;;20.40;98.00;;;;;;5060140;28;20035;-84
2022/08/05 08:00:19;;;;;;;2.15;1.30;;;20.10;3.30;;;;;;5030976;28;20551;-85
2022/08/05 08:02:45;;;;;;;3.97;1.30;;;19.90;1.00;;;;;;5013008;28;20116;-84
2022/08/05 08:05:11;;;;;;;1.95;1.20;;;19.90;1.00;;;;;;5045797;28;20080;-85
2022/08/05 08:07:37;;;;;;;3.55;1.30;;;20.30;1.00;;;;;;5031825;28;20032;-85
2022/08/05 08:10:04;;;;;;;3.65;1.10;;;20.70;99.90;;;;;;5013516;28;20457;-85
2022/08/05 08:12:29;;;;;;;3.42;1.17;;;20.90;99.90;;;;;;5056904;28;20044;-85
2022/08/05 08:14:58;;;;;;;3.00;1.40;;;21.10;99.90;;;;;;5014987;28;20041;-85
2022/08/05 08:17:25;;;;;;;2.47;1.30;;;20.80;99.90;;;;;;5017045;28;20044;-84
2022/08/05 08:19:50;;;;;;;2.28;1.00;;;20.30;1.00;;;;;;5044015;28;20102;-85
2022/08/05 08:22:17;;;;;;;5.13;1.30;;;20.00;1.00;;;;;;5044383;28;20426;-85
2022/08/05 08:24:43;;;;;;;2.60;1.25;;;20.00;99.90;;;;;;5032363;28;20094;-85
2022/08/05 08:27:09;;;;;;;3.45;1.30;;;20.40;99.90;;;;;;5054766;28;20037;-84
2022/08/05 08:29:37;;;;;;;3.10;1.10;;;20.60;99.90;;;;;;5042677;28;20120;-85
2022/08/05 08:32:03;;;;;;;3.42;1.08;;;20.80;99.90;;;;;;5058675;28;20053;-84
2022/08/05 08:34:29;;;;;;;1.17;0.90;;;21.00;99.90;;;;;;5011335;28;20037;-85
2022/08/05 08:36:54;;;;;;;3.03;1.00;;;21.30;99.90;;;;;;5013892;28;20417;-83
2022/08/05 08:39:22;;;;;;;3.00;0.80;;;20.50;99.90;;;;;;5044600;28;20120;-84
2022/08/05 08:41:49;;;;;;;2.33;0.70;;;20.30;91.40;;;;;;5029612;28;20336;-85
2022/08/05 08:44:17;;;;;;;1.75;0.80;;;20.50;99.90;;;;;;5011687;28;20401;-85
2022/08/05 08:46:43;;;;;;;2.28;0.82;;;21.10;99.90;;;;;;5054184;28;20040;-85
2022/08/05 08:49:13;;;;;;;2.55;0.90;;;20.80;54.50;;;;;;5040509;28;20128;-85
2022/08/05 08:51:40;;;;;;;2.83;0.95;;;20.70;99.90;;;;;;5050246;28;20091;-85
2022/08/05 08:54:09;;;;;;;5.28;0.90;;;20.20;99.90;;;;;;5043466;28;20040;-85
2022/08/05 08:56:38;;;;;;;4.20;1.25;;;19.70;25.20;;;;;;5043236;28;20040;-83
2022/08/05 08:59:04;;;;;;;4.40;1.35;;;19.50;99.90;;;;;;5057153;28;20067;-84
2022/08/05 09:01:31;;;;;;;3.38;1.20;;;19.50;99.90;;;;;;5033351;28;20029;-84
2022/08/05 09:03:59;;;;;;;2.85;1.38;;;19.80;99.90;;;;;;5023783;28;20558;-85
2022/08/05 09:06:27;;;;;;;2.08;0.90;;;20.30;99.90;;;;;;5027435;28;20117;-85
2022/08/05 09:08:53;;;;;;;2.75;1.10;;;20.50;99.90;;;;;;5039335;28;20052;-85
2022/08/05 09:11:19;;;;;;;3.67;1.30;;;20.50;1.00;;;;;;5024629;28;20045;-85
2022/08/05 09:13:45;;;;;;;2.60;1.00;;;20.90;1.00;;;;;;5029692;28;20411;-84
2022/08/05 09:16:12;;;;;;;2.22;1.00;;;21.10;99.90;;;;;;5048037;28;20072;-85
2022/08/05 09:18:43;;;;;;;1.45;0.70;;;21.50;99.90;;;;;;5023384;28;20044;-85
2022/08/05 09:21:09;;;;;;;2.55;0.80;;;20.70;99.90;;;;;;5040910;28;20379;-84
2022/08/05 09:23:36;;;;;;;4.78;1.27;;;20.70;58.40;;;;;;5024180;28;20727;-84
2022/08/05 09:26:15;;;;;;;3.60;1.08;;;21.10;99.90;;;;;;5007320;28;20044;-85
2022/08/05 09:28:40;;;;;;;1.52;1.00;;;21.20;99.90;;;;;;5040615;28;20029;-84
2022/08/05 09:31:07;;;;;;;1.42;0.68;;;21.10;99.90;;;;;;5024292;28;20388;-85
2022/08/05 09:33:46;;;;;;;2.55;0.88;;;20.80;99.90;;;;;;5060539;28;20037;-84
2022/08/05 09:36:12;;;;;;;2.90;0.80;;;20.90;15.70;;;;;;5035730;28;20512;-85
2022/08/05 09:38:37;;;;;;;2.85;1.00;;;21.20;1.00;;;;;;5022998;28;21891;-86
2022/08/05 09:41:10;;;;;;;0.60;0.50;;;21.60;1.00;;;;;;5038657;28;20501;-84
2022/08/05 09:43:38;;;;;;;2.53;1.15;;;20.70;1.00;;;;;;5046228;28;20088;-84
2022/08/05 09:46:10;;;;;;;2.45;0.90;;;20.10;77.70;;;;;;5052344;28;20065;-84
2022/08/05 09:48:37;;;;;;;2.53;0.80;;;20.40;99.90;;;;;;5017332;28;20041;-85
2022/08/05 09:51:07;;;;;;;1.92;0.80;;;21.10;94.40;;;;;;5039382;28;20053;-83
2022/08/05 09:53:51;;;;;;;2.25;0.70;;;21.20;1.00;;;;;;5012751;28;20213;-84
2022/08/05 09:56:34;;;;;;;2.33;0.68;;;21.30;1.00;;;;;;5046124;28;20119;-85
2022/08/05 09:59:22;;;;;;;2.35;0.90;;;21.20;99.90;;;;;;5064069;28;20061;-84
2022/08/05 10:01:48;;;;;;;2.45;1.17;;;21.30;99.90;;;;;;5025627;28;20138;-85
2022/08/05 10:04:14;;;;;;;1.63;0.80;;;21.50;1.00;;;;;;5013565;28;20112;-84
2022/08/05 10:06:52;;;;;;;2.03;0.70;;;21.50;99.90;;;;;;5058352;28;20040;-85
2022/08/05 10:09:21;;;;;;;4.03;0.68;;;21.40;99.90;;;;;;5012537;28;20297;-85
2022/08/05 10:11:48;;;;;;;4.43;0.77;;;21.60;99.90;;;;;;5028279;28;20033;-84
2022/08/05 10:14:40;;;;;;;1.58;0.70;;;21.60;99.90;;;;;;5009032;28;20044;-84
2022/08/05 10:17:14;;;;;;;2.88;0.60;;;21.40;99.90;;;;;;5006449;28;20072;-84
2022/08/05 10:19:40;;;;;;;2.00;0.50;;;21.30;99.90;;;;;;5044561;28;20033;-84
2022/08/05 10:22:07;;;;;;;6.93;0.80;;;21.50;99.90;;;;;;5013793;28;20132;-85
2022/08/05 10:24:34;;;;;;;3.08;0.63;;;21.60;99.90;;;;;;5014550;28;20094;-84
2022/08/05 10:27:00;;;;;;;2.40;0.55;;;21.60;99.90;;;;;;5031069;28;20033;-84
2022/08/05 10:29:28;;;;;;;2.25;0.50;;;21.50;99.90;;;;;;5045141;28;20044;-84
2022/08/05 10:31:55;;;;;;;3.33;0.60;;;21.60;99.90;;;;;;5057208;28;20038;-84
2022/08/05 10:34:22;;;;;;;2.30;0.63;;;21.30;99.90;;;;;;5040690;28;20531;-84
2022/08/05 10:36:48;;;;;;;1.70;0.63;;;21.80;99.90;;;;;;5054220;28;20357;-83
2022/08/05 10:39:28;;;;;;;1.45;0.47;;;21.50;99.90;;;;;;5038005;28;20044;-85
2022/08/05 10:42:08;;;;;;;1.65;0.50;;;21.50;99.90;;;;;;5027095;28;20038;-84
2022/08/05 10:44:34;;;;;;;1.52;0.60;;;21.50;99.90;;;;;;5015826;28;20230;-85
2022/08/05 10:47:11;;;;;;;1.15;0.30;;;21.40;99.90;;;;;;5043665;28;20110;-84
2022/08/05 10:50:04;;;;;;;1.02;0.43;;;21.40;99.90;;;;;;5059173;28;20230;-84
2022/08/05 10:52:40;;;;;;;1.92;0.60;;;21.70;99.90;;;;;;5036615;28;20048;-84
2022/08/05 10:55:09;;;;;;;0.80;0.30;;;21.80;99.90;;;;;;5007990;28;20041;-84
2022/08/05 10:57:42;;;;;;;2.15;0.30;;;21.60;99.90;;;;;;5054085;28;20176;-83
2022/08/05 11:00:09;;;;;;;0.73;0.30;;;21.60;99.90;;;;;;5050691;28;20053;-85
2022/08/05 11:02:36;;;;;;;0.70;0.30;;;21.70;99.90;;;;;;5006529;28;20188;-85
2022/08/05 11:05:09;;;;;;;1.45;0.30;;;22.00;99.90;;;;;;5004642;28;20044;-84
2022/08/05 11:07:58;;;;;;;0.90;0.35;;;21.80;99.90;;;;;;5039671;28;20463;-85
2022/08/05 11:10:27;;;;;;;0.73;0.30;;;21.70;99.90;;;;;;5034472;28;20180;-84
2022/08/05 11:12:52;;;;;;;0.90;0.30;;;21.70;99.90;;;;;;5039983;28;20507;-85
2022/08/05 11:15:33;;;;;;;1.13;0.30;;;21.60;99.90;;;;;;5023564;28;20033;-84
2022/08/05 11:18:18;;;;;;;1.05;0.30;;;21.40;99.90;;;;;;5051627;28;20052;-85
2022/08/05 11:20:46;;;;;;;0.45;0.32;;;21.50;99.90;;;;;;5020584;28;20041;-84
2022/08/05 11:23:49;;;;;;;2.10;0.30;;;21.60;99.90;;;;;;5055336;28;20128;-84
2022/08/05 11:26:15;;;;;;;0.38;0.30;;;21.70;99.90;;;;;;5055223;28;20037;-85
2022/08/05 11:28:43;;;;;;;1.70;0.40;;;22.00;99.90;;;;;;5044726;28;20397;-85
2022/08/05 11:31:11;;;;;;;2.10;0.47;;;21.90;99.90;;;;;;5041449;28;20151;-85
2022/08/05 11:33:44;;;;;;;2.95;0.40;;;21.80;99.90;;;;;;5043651;28;20117;-84
2022/08/05 11:36:12;;;;;;;2.75;0.57;;;21.70;99.90;;;;;;5052621;28;20056;-85
2022/08/05 11:38:38;;;;;;;1.55;0.60;;;21.80;99.90;;;;;;5013629;28;20048;-85
2022/08/05 11:41:06;;;;;;;1.40;0.50;;;22.20;99.90;;;;;;5026565;28;20611;-84
2022/08/05 11:43:33;;;;;;;1.25;0.47;;;21.70;99.90;;;;;;5051938;28;20049;-85
2022/08/05 11:46:00;;;;;;;1.42;0.43;;;22.00;99.90;;;;;;5016293;28;20132;-85
2022/08/05 11:48:27;;;;;;;3.40;0.60;;;22.30;99.90;;;;;;5031118;28;20221;-85
2022/08/05 11:50:53;;;;;;;2.00;0.50;;;22.30;99.90;;;;;;5060443;28;20132;-85
2022/08/05 11:53:20;;;;;;;1.25;0.55;;;22.40;99.90;;;;;;5057456;28;20461;-85
2022/08/05 11:55:58;;;;;;;1.40;0.50;;;21.90;99.90;;;;;;5026212;28;20045;-85
2022/08/05 11:58:35;;;;;;;2.05;0.70;;;21.10;99.90;;;;;;5015333;28;20117;-85
2022/08/05 12:01:08;;;;;;;2.40;0.50;;;21.20;99.90;;;;;;5059049;28;20068;-85
2022/08/05 12:03:54;;;;;;;2.13;0.50;;;21.00;99.90;;;;;;5063993;28;20065;-85
2022/08/05 12:06:24;;;;;;;2.53;0.77;;;20.50;99.90;;;;;;5024907;28;20041;-84
2022/08/05 12:08:52;;;;;;;1.75;0.50;;;20.30;99.90;;;;;;5028169;28;20176;-84
2022/08/05 12:11:20;;;;;;;2.13;0.80;;;20.70;99.90;;;;;;5031057;28;20072;-84
2022/08/05 12:13:52;;;;;;;3.45;0.65;;;20.70;99.90;;;;;;5043153;28;20169;-84
2022/08/05 12:16:19;;;;;;;1.70;0.60;;;20.60;99.90;;;;;;5052930;28;20598;-84
2022/08/05 12:18:46;;;;;;;1.10;0.52;;;20.90;99.90;;;;;;5047380;28;20045;-84
2022/08/05 12:21:27;;;;;;;4.53;0.82;;;20.40;99.90;;;;;;5039555;28;20497;-85
2022/08/05 12:23:53;;;;;;;3.28;0.68;;;20.50;99.90;;;;;;5030579;28;20029;-83
2022/08/05 12:26:20;;;;;;;3.08;0.70;;;20.50;99.90;;;;;;5039523;28;20416;-83
2022/08/05 12:28:48;;;;;;;2.00;0.63;;;21.40;99.90;;;;;;5016202;28;20126;-84
2022/08/05 12:31:15;;;;;;;3.88;0.55;;;21.70;99.90;;;;;;5056750;28;20080;-84
2022/08/05 12:33:42;;;;;;;3.72;0.75;;;21.20;99.90;;;;;;5019253;28;20044;-85
2022/08/05 12:36:09;;;;;;;2.17;0.50;;;20.80;99.90;;;;;;5064632;28;20084;-83
2022/08/05 12:38:41;;;;;;;2.25;0.63;;;21.00;99.90;;;;;;5018456;28;20044;-86
2022/08/05 12:41:15;;;;;;;2.33;0.50;;;21.20;99.90;;;;;;5026815;28;20520;-84
2022/08/05 12:43:58;;;;;;;2.33;0.60;;;20.90;99.90;;;;;;5013964;28;20048;-84
2022/08/05 12:46:32;;;;;;;2.97;0.80;;;21.50;99.90;;;;;;5013570;28;20280;-84
2022/08/05 12:49:12;;;;;;;1.40;0.70;;;21.70;99.90;;;;;;5034551;28;20034;-84
2022/08/05 12:51:55;;;;;;;2.92;0.63;;;22.10;99.90;;;;;;5024263;28;20119;-85
2022/08/05 12:54:23;;;;;;;2.47;0.60;;;22.20;99.90;;;;;;5045909;28;20038;-84
2022/08/05 12:57:01;;;;;;;3.97;0.68;;;21.80;99.90;;;;;;5029145;28;20543;-84
2022/08/05 12:59:32;;;;;;;2.90;0.70;;;21.60;99.90;;;;;;5022913;28;20552;-84
2022/08/05 13:02:04;;;;;;;1.65;0.43;;;20.70;99.90;;;;;;5028657;28;20041;-84
2022/08/05 13:04:49;;;;;;;2.17;0.70;;;20.60;99.90;;;;;;5054579;28;20041;-84